Date,TemperatureHighF,TemperatureAvgF,TemperatureLowF,DewpointHighF,DewpointAvgF,DewpointLowF,HumidityHigh,HumidityAvg,HumidityLow,PressureMaxIn,PressureMinIn,WindSpeedMaxMPH,WindSpeedAvgMPH,GustSpeedMaxMPH,PrecipitationSumIn
2012-1-1,78.3,69.5,51.2,40.7,22.8,-5.3,67,19,5,30.11,30.04,7,4,21,0.00
2012-1-2,68.9,56.3,45.3,49.7,33.3,-99.9,91,49,16,30.25,30.10,6,-15,17,0.00
2012-1-3,76.9,65.6,58.5,44.0,31.6,21.1,39,28,18,30.27,30.18,6,3,9,0.00
2012-1-4,80.8,67.9,52.0,45.0,26.9,4.9,77,24,9,30.28,30.17,7,2,11,0.00
2012-1-5,78.9,62.8,42.9,50.0,33.8,18.4,86,39,13,30.22,30.09,6,1,10,0.00
2012-1-6,61.1,49.4,40.0,47.1,39.2,15.7,93,72,18,30.14,30.04,3,0,7,0.00
2012-1-7,68.5,61.4,53.7,35.8,27.4,15.5,47,28,17,30.12,30.02,5,2,15,0.00
2012-1-10,51.0,48.9,47.8,41.9,34.9,25.6,76,60,37,30.08,30.06,5,2,7,0.00
2012-1-11,55.1,52.6,50.4,25.9,24.5,22.4,38,33,28,30.06,30.01,6,3,9,0.00
2012-1-12,71.7,60.0,54.1,39.8,26.6,13.4,48,28,19,30.08,29.97,6,3,10,0.00
2012-1-13,75.9,63.8,56.3,34.3,23.9,13.5,30,22,15,30.15,30.07,6,3,10,0.00
2012-1-14,73.5,62.4,54.5,35.8,21.9,10.6,40,22,14,30.14,30.05,6,3,10,0.00
2012-1-18,55.1,45.5,41.2,40.2,32.6,24.7,84,61,51,30.31,30.26,1,0,1,0.00
2012-1-19,48.4,47.7,46.8,46.5,45.7,44.3,93,93,91,30.12,30.10,2,1,0,0.01
2012-1-20,54.1,52.2,48.3,52.7,50.7,46.7,96,95,93,30.10,29.83,10,4,26,2.55
2012-1-21,53.2,48.0,44.4,52.1,46.8,40.8,97,96,86,30.11,29.81,12,2,16,1.05
2012-1-22,50.7,49.1,46.6,48.4,45.5,42.0,94,88,73,30.08,29.90,9,6,16,0.19
2012-1-23,50.3,44.5,42.0,48.4,43.5,41.2,97,96,93,30.14,29.88,7,1,7,1.19
2012-1-24,63.9,51.3,40.6,52.6,45.1,39.8,98,81,47,30.31,30.13,3,0,4,0.01
2012-2-5,54.9,54.9,54.9,27.0,27.0,27.0,34,34,34,29.96,29.96,5,5,6,0.00
2012-2-6,56.9,55.7,54.2,33.5,28.3,24.5,45,35,30,29.75,29.73,15,13,27,0.00
2012-2-8,62.9,62.8,62.6,46.5,46.3,46.2,55,55,55,30.18,30.18,1,1,1,0.00
2012-2-12,50.7,45.7,41.3,48.2,42.9,32.5,96,90,68,30.08,30.03,4,1,9,0.02
2012-2-13,45.7,42.5,40.3,44.3,41.1,36.9,97,95,83,30.04,29.95,6,1,9,1.27
2012-2-14,55.7,45.0,39.3,49.8,42.6,37.2,97,91,73,30.13,29.99,1,0,4,0.08
2012-2-15,44.8,43.4,42.4,43.5,41.2,40.0,95,92,88,30.13,30.05,1,0,3,0.12
2012-2-18,58.6,48.3,40.7,50.9,41.8,36.4,96,78,63,30.18,30.10,1,0,5,0.00
2012-2-19,58.3,45.0,37.1,44.6,38.0,34.2,91,77,55,30.14,30.07,3,0,4,0.00
2012-2-20,60.3,50.1,42.3,49.3,43.1,36.6,92,77,60,30.18,30.08,3,1,5,0.00
2012-2-21,68.1,58.1,48.7,51.5,43.9,38.3,75,59,45,30.24,30.14,3,1,9,0.00
2012-2-22,77.8,64.4,49.6,48.4,41.1,34.8,79,45,23,30.20,30.03,5,2,8,0.00
2012-2-23,73.3,60.8,44.7,46.5,36.0,19.7,94,45,17,30.03,29.87,5,2,16,0.00
2012-2-24,77.6,62.2,45.3,43.8,32.5,16.4,79,37,16,30.16,29.92,4,0,6,0.00
2012-2-25,66.2,51.7,41.8,42.5,35.1,20.0,90,57,24,30.18,30.12,5,1,8,0.00
2012-2-27,46.3,40.3,37.7,42.9,36.6,32.7,91,87,80,30.01,29.86,3,0,4,0.23
2012-2-28,52.5,43.2,38.3,42.6,36.3,32.8,93,78,50,30.27,30.01,5,1,5,0.05
2012-2-29,48.2,44.2,38.7,47.1,42.6,35.3,96,94,75,30.26,30.17,8,2,12,0.60
2012-3-1,48.7,42.5,37.9,44.5,39.9,34.5,96,90,81,30.32,30.22,3,0,3,0.20
2012-3-2,62.7,50.6,36.7,43.5,35.0,21.7,94,58,31,30.30,30.20,5,2,8,0.00
2012-3-3,68.3,57.6,48.1,41.8,32.5,22.8,62,39,27,30.30,30.20,6,2,9,0.00
2012-3-4,80.2,66.2,55.8,48.2,36.2,25.9,46,34,23,30.21,30.01,7,3,9,0.00
2012-3-5,77.2,62.1,41.7,53.0,36.4,23.9,84,41,22,30.01,29.94,6,2,8,0.00
2012-3-6,52.1,44.1,39.5,43.2,36.0,24.7,94,74,42,30.02,29.94,2,1,6,0.05
2012-3-7,62.6,47.3,38.0,30.2,22.0,13.7,63,39,20,30.18,29.99,5,2,9,0.00
2012-3-8,67.6,53.5,45.4,35.0,23.6,18.6,35,31,24,30.28,30.18,6,3,7,0.00
2012-3-9,81.4,61.0,50.7,30.6,21.9,13.1,40,24,9,30.17,30.08,3,1,4,0.00
2012-3-10,64.7,50.4,39.5,47.6,36.9,12.7,93,64,19,30.08,29.98,4,1,6,0.00
2012-3-11,63.3,48.1,37.8,45.9,41.1,34.8,92,78,51,30.08,30.00,3,0,4,0.00
2012-3-12,56.0,48.1,42.7,45.2,40.0,35.2,90,74,57,30.04,29.97,9,4,15,0.00
2012-3-13,53.0,48.3,46.1,48.6,46.0,44.5,94,92,83,30.05,29.96,7,4,14,0.22
2012-3-14,53.3,51.3,49.6,51.1,49.2,47.6,95,93,90,30.17,30.03,6,3,11,0.11
2012-3-15,60.1,54.2,50.0,53.7,50.7,47.6,96,88,77,30.17,30.07,5,2,7,0.00
2012-3-16,54.9,50.4,43.2,52.4,49.0,42.1,96,95,89,30.09,29.76,7,2,15,2.14
2012-3-17,43.8,41.0,38.6,42.1,38.6,34.8,96,91,85,29.77,29.47,5,2,7,0.33
2012-3-20,61.1,53.3,47.3,48.8,46.7,44.2,90,79,62,30.16,30.12,2,0,2,0.00
2012-3-21,70.5,60.0,49.3,53.5,49.5,45.8,92,70,48,30.14,29.96,3,1,4,0.00
2012-3-22,62.7,50.5,40.3,51.7,43.7,25.6,93,78,52,30.01,29.91,3,0,4,0.00
2012-3-23,57.1,46.5,36.6,39.5,30.8,12.6,87,56,21,30.08,29.90,8,2,10,0.00
2012-3-24,51.4,45.2,39.9,44.1,38.7,11.4,96,81,20,29.92,29.78,10,4,16,1.92
2012-3-25,56.1,44.6,39.3,50.0,41.0,37.7,95,88,66,29.82,29.76,5,2,11,0.67
2012-3-27,54.9,50.4,48.1,48.0,45.7,42.3,94,85,71,30.03,29.95,10,7,19,0.72
2012-3-28,62.9,52.1,47.1,56.6,48.7,38.9,96,88,70,30.11,30.00,7,2,15,0.26
2012-3-29,66.1,54.0,46.8,51.1,44.5,39.1,84,71,52,30.13,30.05,6,2,7,0.00
2012-3-30,65.7,55.7,47.7,53.6,46.3,39.0,89,71,60,30.10,29.93,5,2,6,0.00
2012-3-31,53.7,44.4,41.9,47.9,29.5,-99.9,96,76,73,30.06,29.80,12,-94,16,1.05
2012-4-1,57.0,44.0,39.9,47.1,32.2,-99.9,96,79,62,30.26,30.06,2,-56,5,0.14
2012-4-2,63.9,55.1,47.5,49.7,41.4,33.3,72,60,39,30.17,30.03,5,1,8,0.00
2012-4-3,66.1,52.5,42.7,52.2,44.0,38.4,93,74,50,30.10,30.01,3,1,5,0.04
2012-4-4,60.5,46.9,39.5,45.7,39.5,31.4,94,77,50,30.14,30.08,4,1,7,0.00
2012-4-5,56.2,44.2,39.6,40.5,35.7,33.5,81,73,53,30.20,30.11,1,0,2,0.00
2012-4-6,47.6,38.5,35.7,35.6,32.9,29.2,86,80,57,30.23,30.20,1,0,2,0.00
2012-4-7,64.4,59.4,49.8,36.1,32.7,25.8,39,36,35,30.08,30.08,4,1,7,0.00
2012-4-8,71.5,56.3,43.9,47.4,33.0,2.0,88,47,12,30.04,30.00,6,2,8,0.00
2012-4-9,66.8,52.5,38.8,48.0,27.6,-14.3,84,46,4,30.00,29.84,11,3,13,0.00
2012-4-10,53.0,49.4,46.7,49.3,45.7,37.4,94,87,62,29.89,29.81,10,3,13,0.68
2012-4-11,52.8,48.7,44.1,47.1,44.4,41.2,95,85,68,30.05,29.88,8,4,13,0.23
2012-4-12,55.6,49.2,44.3,48.9,44.2,40.9,96,83,60,30.06,29.86,12,6,17,0.53
2012-4-13,50.2,45.1,41.2,47.6,42.8,39.3,96,92,84,29.91,29.78,11,1,12,1.73
2012-4-14,48.4,43.7,40.4,45.1,41.4,38.7,95,92,85,30.17,29.92,4,1,4,0.24
2012-4-15,60.7,49.5,40.1,53.2,44.8,38.8,96,84,56,30.22,30.16,3,1,4,0.00
2012-4-16,70.7,58.8,48.9,53.2,39.7,17.7,73,52,23,30.20,30.14,4,1,6,0.00
2012-4-17,74.7,61.7,50.7,55.7,42.8,25.1,61,50,32,30.14,30.09,4,1,5,0.00
2012-4-18,69.4,60.3,50.4,52.6,47.7,31.5,86,64,40,30.12,30.06,3,0,3,0.00
2012-4-19,74.7,62.4,49.3,58.1,53.0,46.2,90,72,54,30.12,30.01,2,1,4,0.00
2012-4-20,90.3,75.4,65.3,60.8,55.9,50.3,74,53,30,30.03,29.91,4,1,6,0.00
2012-4-21,88.1,77.6,69.1,59.2,50.5,42.2,65,39,28,29.91,29.81,6,2,6,0.00
2012-4-22,78.0,66.1,49.3,58.5,50.8,43.2,93,60,39,29.89,29.82,4,1,5,0.00
2012-4-23,62.0,53.7,48.8,50.3,48.4,47.2,95,83,65,30.00,29.87,10,3,18,0.00
2012-4-24,66.3,57.6,51.8,53.6,49.9,47.3,88,76,60,30.02,29.93,8,2,9,0.00
2012-4-25,68.4,58.0,52.9,56.9,52.0,48.6,95,81,64,30.00,29.78,6,1,10,0.06
2012-4-26,60.2,51.4,43.6,54.8,48.3,39.1,97,89,63,30.17,29.78,5,1,7,0.66
2012-4-27,64.8,51.1,42.7,52.6,42.9,36.5,88,74,57,30.19,30.08,3,1,6,0.00
2012-4-28,65.0,54.0,44.6,53.5,45.5,40.1,94,74,50,30.11,29.89,2,0,3,0.00
2012-4-29,78.6,64.1,45.3,58.4,51.8,43.7,96,66,43,29.89,29.84,3,1,5,0.00
2012-5-1,65.4,56.4,44.8,50.7,47.5,43.2,95,73,55,29.94,29.91,2,0,4,0.00
2012-5-2,63.6,54.4,41.7,48.1,44.2,38.7,90,70,53,30.00,29.94,2,0,3,0.00
2012-5-3,61.0,50.9,40.8,51.6,44.6,32.9,91,80,52,30.10,29.98,3,0,3,0.00
2012-5-4,51.0,49.0,46.2,48.6,47.1,44.8,95,93,88,30.16,30.08,2,0,2,0.05
2012-5-7,67.6,63.4,60.3,42.7,36.2,27.4,49,37,22,29.92,29.91,1,0,3,0.00
2012-5-8,84.4,72.1,64.9,57.8,42.3,25.8,56,35,21,29.92,29.86,6,2,7,0.00
2012-5-9,75.9,65.3,45.4,55.3,44.5,34.1,89,51,26,29.90,29.86,6,1,7,0.00
2012-5-10,73.3,61.2,45.7,54.1,45.0,24.1,83,56,31,29.88,29.85,2,0,3,0.00
2012-5-11,79.2,66.8,53.0,57.4,44.4,31.3,74,45,27,29.94,29.84,3,1,5,0.00
2012-5-12,79.4,64.1,50.7,59.2,46.0,32.2,88,54,29,30.02,29.93,4,1,5,0.00
2012-5-13,67.9,52.1,44.8,54.8,46.3,40.3,94,81,54,30.10,29.99,4,1,5,0.00
2012-5-14,57.7,52.7,46.8,50.0,46.2,40.5,90,79,67,30.10,30.02,4,1,7,0.00
2012-5-15,69.4,55.9,45.6,54.6,48.0,43.6,93,76,57,30.04,29.97,3,0,3,0.00
2012-5-16,78.3,61.3,43.3,57.7,46.3,13.5,96,64,11,29.99,29.92,2,0,3,0.00
2012-5-17,69.8,58.0,44.2,52.2,38.6,6.5,91,56,9,29.93,29.84,2,0,4,0.00
2012-5-18,68.7,51.9,41.5,53.0,45.1,37.9,94,79,53,29.98,29.89,2,0,3,0.00
2012-5-19,71.1,56.8,42.8,53.6,42.8,23.2,89,62,28,29.98,29.92,1,0,3,0.00
2012-5-20,81.1,64.4,47.4,57.0,44.5,23.0,85,51,24,29.97,29.91,1,0,2,0.00
2012-5-21,76.4,59.6,47.0,55.3,48.1,41.6,92,67,45,30.04,29.94,2,0,4,0.00
2012-5-22,76.5,65.6,54.5,54.8,46.8,34.5,81,52,31,30.06,30.02,3,0,8,0.00
2012-5-23,69.5,58.1,44.6,51.1,44.7,40.4,89,63,42,29.98,29.91,1,0,4,0.00
2012-5-24,65.5,51.4,42.9,51.1,44.2,39.1,94,78,55,29.91,29.80,1,0,4,0.00
2012-5-25,53.4,46.3,43.6,46.3,42.5,39.2,95,87,72,29.89,29.77,2,1,4,0.00
2012-5-26,51.3,47.2,44.1,50.2,45.6,42.2,96,94,89,30.11,29.89,1,0,1,0.00
2012-5-27,63.0,51.1,41.9,52.7,46.3,40.6,96,84,65,30.13,30.05,2,0,4,0.00
2012-5-28,67.3,55.2,43.8,54.3,46.5,40.0,87,73,54,30.05,30.00,2,0,3,0.00
2012-5-29,63.9,51.0,41.9,51.5,45.1,39.3,94,81,61,30.06,29.98,2,0,3,0.00
2012-5-30,72.0,55.4,43.1,55.7,48.2,41.5,96,79,52,30.08,30.02,2,0,3,0.01
2012-5-31,80.7,68.9,50.5,59.1,50.5,39.2,81,53,38,30.03,29.83,5,1,6,0.00
2012-6-1,74.2,68.5,53.7,48.5,43.9,40.7,74,42,30,29.82,29.78,3,1,5,0.00
2012-6-3,78.6,69.9,56.3,55.8,52.0,42.8,71,54,37,29.90,29.85,1,0,3,0.00
2012-6-4,59.5,51.2,46.0,55.0,48.5,43.2,94,91,79,30.12,29.96,1,0,2,0.37
2012-6-5,63.5,50.9,43.6,50.0,43.2,38.7,90,76,52,30.17,30.11,1,0,3,0.00
2012-6-6,65.6,51.3,42.2,51.1,43.9,38.6,93,77,52,30.11,29.98,2,0,3,0.00
2012-6-7,68.9,49.5,42.9,54.3,44.1,39.8,92,82,57,30.02,29.96,1,0,3,0.00
2012-6-10,85.0,75.0,65.8,49.1,40.5,33.9,39,29,22,29.87,29.84,3,1,6,0.00
2012-6-11,88.6,73.9,61.1,55.3,42.3,24.8,58,33,18,29.93,29.84,4,1,6,0.00
2012-6-12,78.8,62.1,48.7,58.0,48.5,36.5,93,63,36,29.96,29.88,2,0,2,0.00
2012-6-13,67.9,56.4,47.1,54.6,49.1,44.6,94,78,58,29.95,29.80,1,0,3,0.00
2012-6-14,67.6,52.8,45.0,54.0,47.7,43.1,94,84,58,29.86,29.80,2,0,3,0.00
2012-6-16,92.2,78.2,61.7,62.6,57.3,48.5,75,50,32,29.83,29.76,3,0,4,0.00
2012-6-17,68.4,64.8,59.6,54.1,52.2,50.7,74,64,55,29.80,29.76,1,0,1,0.00
2012-7-1,57.2,55.7,54.4,54.3,53.1,52.1,92,91,90,29.87,29.86,0,0,0,0.00
2012-7-2,71.7,58.4,50.1,59.1,52.7,48.4,95,83,59,29.92,29.83,2,0,3,0.00
2012-7-3,72.8,58.0,47.3,56.7,51.0,45.7,95,80,54,29.91,29.86,1,0,2,0.00
2012-7-4,70.7,58.9,50.0,56.6,51.5,47.5,92,78,57,29.93,29.89,2,0,3,0.00
2012-7-5,71.6,56.7,45.9,55.3,49.6,44.4,95,79,54,29.99,29.92,2,0,3,0.00
2012-7-7,78.1,69.0,56.2,60.0,54.9,43.8,81,61,50,29.96,29.92,1,0,2,0.00
2012-7-8,74.6,58.2,45.6,58.2,50.6,43.7,95,77,55,30.01,29.93,1,0,2,0.00
2012-7-9,76.7,58.5,45.5,58.5,51.2,44.2,96,79,51,30.01,29.96,2,0,4,0.00
2012-7-10,91.8,79.7,70.5,61.8,53.1,38.6,60,40,25,29.88,29.80,2,0,2,0.00
2012-7-11,94.9,79.9,68.5,62.1,51.4,41.7,47,38,27,29.82,29.76,1,0,2,0.00
2012-7-12,81.9,70.5,56.7,60.1,51.4,34.2,81,52,30,29.83,29.73,2,0,3,0.00
2012-7-13,74.3,62.3,49.2,56.0,45.6,21.9,91,59,16,29.92,29.80,1,0,3,0.00
2012-7-14,68.7,54.2,47.0,54.7,49.2,45.1,94,84,58,29.96,29.89,2,0,3,0.00
2012-7-15,72.4,56.0,45.6,56.8,50.3,44.0,96,83,56,29.92,29.85,2,0,3,0.00
2012-7-16,63.8,53.7,46.6,52.2,49.0,45.2,95,85,64,29.93,29.85,8,2,14,0.00
2012-7-17,60.0,54.4,50.6,54.3,51.2,48.3,93,89,79,29.99,29.90,4,1,10,0.00
2012-7-18,67.3,57.0,51.0,53.7,50.7,48.1,92,80,61,29.99,29.93,2,0,4,0.00
2012-7-19,72.7,59.6,49.5,57.6,50.5,37.5,93,73,51,30.02,29.93,3,0,4,0.00
2012-7-20,79.8,65.7,48.6,59.7,50.3,28.7,95,60,28,30.02,29.96,2,0,3,0.00
2012-7-21,88.1,75.9,60.7,61.7,53.1,44.0,62,45,35,29.96,29.84,2,0,3,0.00
2012-7-22,71.0,57.1,48.8,57.6,50.9,46.3,94,81,59,29.94,29.83,2,0,3,0.00
2012-7-23,56.8,49.3,47.2,54.5,47.8,45.8,96,95,89,29.97,29.93,0,0,1,0.00
2012-8-2,66.2,63.7,61.6,51.0,40.1,32.6,58,42,30,29.86,29.85,1,0,1,0.00
2012-8-3,69.5,59.8,48.7,56.7,48.7,31.9,92,69,30,29.89,29.81,2,0,5,0.00
2012-8-4,62.9,55.2,51.0,59.2,52.3,49.3,96,90,78,29.96,29.82,2,0,3,0.00
2012-8-5,77.3,60.8,49.5,60.2,52.3,39.4,97,76,42,30.04,29.95,2,0,3,0.00
2012-8-6,94.5,72.6,50.6,61.8,50.2,35.8,91,48,25,30.03,29.97,3,0,4,0.00
2012-8-7,82.1,71.8,59.2,58.0,47.1,31.9,73,43,22,29.98,29.91,2,0,3,0.00
2012-8-8,84.9,74.1,67.2,58.9,48.8,36.8,61,42,29,29.92,29.86,1,0,2,0.00
2012-8-9,96.4,83.7,72.4,62.0,49.2,29.1,52,31,15,29.88,29.77,3,0,3,0.00
2012-8-10,96.9,84.5,70.3,60.3,47.0,21.8,45,28,11,29.77,29.69,4,1,6,0.00
2012-8-11,98.9,84.3,70.4,60.2,45.4,22.2,53,28,11,29.75,29.66,3,1,5,0.00
2012-8-12,94.5,81.0,70.4,60.9,44.5,27.0,45,28,18,29.78,29.74,1,0,2,0.00
2012-8-13,93.8,79.8,65.5,61.1,50.3,39.7,54,36,24,29.78,29.73,1,0,1,0.00
2012-8-14,81.6,67.0,50.9,59.4,53.0,46.0,92,62,46,29.79,29.74,1,0,4,0.00
2012-8-15,73.2,58.6,48.0,58.5,52.0,46.4,95,80,54,29.90,29.77,2,0,5,0.00
2012-8-16,58.0,54.0,51.0,50.4,45.9,41.7,91,75,55,29.90,29.88,0,0,1,0.00
2012-8-28,67.7,64.0,62.1,51.0,49.9,48.6,66,60,53,29.89,29.87,1,0,1,0.00
2012-8-29,94.8,78.5,64.8,58.2,46.6,21.1,61,34,13,29.87,29.76,5,1,8,0.00
2012-8-30,74.9,66.1,50.5,55.8,42.9,15.7,91,51,11,29.84,29.72,3,0,3,0.00
2012-8-31,75.9,57.2,47.6,55.6,49.3,43.9,93,77,46,29.97,29.84,3,1,4,0.00
2012-9-1,72.1,56.3,44.7,53.5,47.0,34.7,92,73,35,30.02,29.95,3,1,5,0.00
2012-9-2,89.5,75.0,62.0,56.5,39.4,25.4,48,28,18,29.95,29.87,5,2,6,0.00
2012-9-3,92.5,78.0,68.9,58.0,45.4,29.6,48,32,21,29.92,29.86,5,1,7,0.00
2012-9-4,88.4,74.4,62.6,57.0,43.9,23.2,57,35,16,29.95,29.89,4,1,5,0.00
2012-9-5,80.2,69.0,57.7,56.9,33.8,23.8,59,29,17,29.92,29.88,2,0,2,0.00
2012-9-6,57.2,53.8,52.9,49.7,49.1,47.1,88,84,69,29.97,29.95,0,0,0,0.00
2012-9-7,77.5,66.0,54.8,56.8,47.7,32.6,81,52,33,30.04,29.96,2,0,5,0.00
2012-9-8,75.7,65.2,52.2,57.2,51.6,44.0,85,63,48,30.01,29.93,2,0,2,0.00
2012-9-9,76.4,63.1,49.7,56.2,49.5,36.8,91,63,40,29.95,29.88,1,0,2,0.00
2012-9-10,77.0,62.3,47.1,57.1,49.3,28.7,94,65,29,29.91,29.83,3,0,4,0.00
2012-9-11,76.4,63.3,48.5,56.5,44.5,26.8,87,52,24,29.94,29.83,4,0,5,0.00
2012-9-12,60.7,59.1,56.6,42.1,41.3,40.6,56,52,48,29.94,29.93,1,0,2,0.00
2012-9-17,53.9,48.6,46.4,47.2,45.3,43.6,93,89,78,30.03,29.99,0,0,2,0.00
2012-9-18,75.0,56.0,43.8,56.1,48.5,42.2,96,79,50,30.05,30.01,2,0,3,0.00
2012-9-19,73.1,57.3,46.9,55.6,49.9,45.5,96,79,51,30.05,30.00,2,0,4,0.00
2012-9-20,74.7,58.1,47.6,55.9,49.7,45.7,95,76,48,30.03,29.95,2,0,5,0.00
2012-9-29,89.0,80.2,74.5,58.9,47.9,38.9,41,33,26,29.96,29.92,2,0,3,0.00
2012-9-30,102.0,98.4,87.7,51.9,44.0,38.0,21,16,12,29.97,29.89,3,1,6,0.00
2012-10-2,104.0,90.7,80.3,44.7,34.9,21.1,23,15,9,29.81,29.74,5,2,7,0.00
2012-10-3,91.3,75.9,53.6,59.6,47.1,35.1,91,42,19,29.94,29.76,5,1,6,0.00
2012-10-4,70.2,60.3,52.3,55.7,52.3,48.2,92,76,58,30.11,29.94,2,0,4,0.00
2012-10-5,75.9,66.2,55.5,55.9,52.0,45.0,83,61,46,30.12,30.02,4,1,5,0.00
2012-10-6,78.3,67.9,52.7,54.8,49.9,45.7,77,54,38,29.99,29.92,4,1,7,0.00
2012-10-7,74.8,62.1,52.6,51.9,47.9,41.6,79,61,40,29.97,29.91,3,1,5,0.00
2012-10-8,75.3,61.6,53.1,54.1,47.1,39.9,85,60,42,30.01,29.96,4,0,4,0.00
2012-10-9,72.1,59.8,52.6,53.1,48.1,40.2,89,67,46,30.01,29.91,5,2,6,0.00
2012-10-10,66.4,54.8,47.9,57.0,51.0,46.5,95,88,63,29.94,29.89,3,0,4,0.06
2012-10-11,51.4,48.7,46.2,50.3,47.1,44.6,96,94,82,29.98,29.88,3,0,4,0.03
2012-10-12,65.5,54.1,49.2,56.5,50.2,46.4,96,87,68,30.20,29.96,3,1,4,0.01
2012-10-13,76.2,61.8,50.6,57.1,50.5,46.2,86,68,45,30.25,30.11,5,2,7,0.00
2012-10-14,81.4,71.3,61.9,59.4,53.1,47.1,65,53,39,30.13,30.00,2,1,3,0.00
2012-10-31,61.0,56.8,54.6,53.9,51.4,49.4,87,82,74,30.03,29.98,3,1,5,0.00
2012-11-1,58.6,55.5,52.6,57.2,52.6,50.3,96,90,83,30.01,29.98,4,0,5,0.10
2012-11-2,68.9,58.1,50.8,56.6,48.3,29.1,93,71,35,30.04,29.98,6,2,7,0.00
2012-11-3,77.4,66.6,56.6,53.1,41.9,21.9,59,41,20,30.07,30.01,6,2,8,0.00
2012-11-4,88.5,75.7,64.9,46.1,38.0,16.4,39,26,13,30.11,30.04,7,2,9,0.00
2012-11-5,93.8,78.8,70.7,42.9,33.8,26.8,29,20,11,30.07,29.98,6,4,9,0.00
2012-11-6,91.3,77.2,68.4,42.3,32.9,27.6,24,20,15,30.01,29.95,6,3,8,0.00
2012-11-7,76.9,61.8,48.3,54.3,42.7,27.0,91,57,23,29.99,29.92,5,1,7,0.00
2012-11-8,64.2,50.0,41.1,46.3,42.0,37.5,94,77,41,29.98,29.89,3,1,7,0.03
2012-11-9,57.1,46.1,40.5,49.0,41.4,36.3,96,85,59,30.00,29.88,4,1,5,0.01
2012-11-10,58.3,46.6,39.9,49.1,41.0,35.0,95,82,56,30.24,30.00,2,0,4,0.01
2012-11-11,62.0,49.4,40.5,43.1,33.3,22.9,81,55,30,30.34,30.24,6,2,7,0.00
2012-11-12,69.2,56.9,45.9,44.0,30.0,15.6,54,37,26,30.33,30.15,6,3,8,0.00
2012-11-13,77.3,65.4,55.4,43.9,32.8,23.1,37,30,18,30.18,30.00,6,2,8,0.00
2012-11-14,80.8,65.8,61.0,43.9,34.4,24.9,41,32,23,30.03,29.95,6,3,7,0.00
2012-11-15,72.6,62.6,56.1,45.3,28.4,14.8,67,29,13,29.97,29.90,9,4,16,0.00
2012-11-16,57.1,54.9,53.1,53.8,51.6,-99.9,95,90,67,29.95,29.85,23,4,34,0.23
2012-11-17,56.2,54.0,49.6,55.4,52.9,48.8,97,96,92,30.03,29.83,28,9,39,1.30
2012-11-18,60.3,52.3,46.9,53.6,47.1,39.9,97,83,58,30.17,30.00,20,3,25,0.07
2012-11-19,61.0,53.0,47.2,47.5,43.8,38.3,80,71,58,30.24,30.15,12,2,16,0.00
2012-11-20,64.3,56.4,50.1,56.0,51.3,44.2,93,83,71,30.19,30.07,9,3,14,0.00
2012-11-21,61.2,55.5,47.7,55.9,52.0,45.8,96,88,73,30.17,30.07,8,3,0,0.18
2012-11-22,68.9,54.8,47.5,52.4,32.4,-99.9,92,57,24,30.17,30.10,4,1,0,0.00
2012-11-24,66.3,65.4,64.3,34.1,32.4,31.0,32,29,27,29.94,29.93,1,1,4,0.00
2012-11-25,71.8,52.9,51.8,52.8,19.3,-99.9,92,40,26,29.93,29.84,4,-145,7,0.00
2012-11-26,63.7,45.2,45.0,51.0,24.3,-99.9,94,66,45,30.06,29.91,3,-143,4,0.00
2012-11-27,57.5,43.1,45.6,49.1,20.3,-99.9,94,66,69,30.10,29.96,19,-170,32,0.00
2012-11-28,56.0,44.7,51.8,51.4,22.6,-99.9,93,67,70,30.07,29.88,19,-166,41,0.32
2012-11-29,57.9,47.4,53.2,55.6,28.8,-99.9,95,74,76,30.07,29.91,25,-142,36,0.09
2012-11-30,57.3,55.2,52.8,56.4,53.9,51.1,97,95,89,30.05,29.88,25,12,46,4.15
2012-12-1,59.2,56.5,53.9,56.1,53.7,51.0,96,90,80,30.08,29.97,24,12,33,0.30
2012-12-2,57.6,53.1,45.1,56.8,52.4,44.6,98,97,94,30.08,29.93,29,8,38,2.11
2012-12-3,61.1,50.3,44.5,52.9,43.0,31.4,96,77,46,30.19,30.06,4,1,6,0.00
2012-12-4,58.6,52.4,46.6,53.3,45.8,31.5,95,79,58,30.25,30.16,5,1,6,0.00
2012-12-5,61.2,58.0,53.8,60.3,56.6,49.5,98,95,82,30.20,30.04,3,1,4,0.55
2012-12-6,56.8,51.4,46.9,54.8,46.8,16.5,98,88,21,30.09,30.00,5,1,6,0.01
2012-12-7,64.3,56.2,51.4,43.6,32.0,18.0,62,41,23,30.08,30.02,4,1,6,0.00
2012-12-8,64.2,59.4,54.3,45.8,33.5,16.7,60,39,19,30.01,29.91,5,2,12,0.00
2012-12-9,69.3,60.7,53.8,48.9,35.8,28.0,74,41,27,30.10,29.99,6,2,12,0.00
2012-12-10,70.4,61.1,53.5,46.5,39.6,30.5,56,45,35,30.16,30.05,4,1,6,0.00
2012-12-11,68.3,56.1,46.7,52.3,40.2,26.4,96,61,29,30.06,29.85,5,1,8,0.00
2012-12-12,49.1,44.9,40.5,47.0,41.4,36.4,96,88,72,29.90,29.83,7,1,10,0.25
2012-12-13,54.2,44.7,39.3,39.7,36.4,31.6,86,73,44,29.88,29.78,7,2,9,0.00
2012-12-14,45.4,40.6,37.3,39.7,34.2,29.5,83,78,67,30.01,29.82,2,0,5,0.00
2012-12-15,48.1,43.5,39.3,43.7,38.9,34.4,94,84,75,30.10,29.97,9,2,12,0.09
2012-12-16,54.4,49.7,44.6,50.0,46.9,43.3,96,90,83,30.10,29.99,10,3,16,0.01
2012-12-17,55.8,50.0,45.1,51.7,48.0,43.8,97,93,86,30.10,29.97,17,6,25,0.28
2012-12-18,46.5,42.7,38.8,43.6,35.5,29.6,95,76,54,30.16,29.97,8,4,17,0.00
2012-12-19,52.9,43.2,37.7,31.7,25.6,16.5,75,51,27,30.28,30.15,8,2,12,0.00
2012-12-20,54.1,46.8,39.1,29.3,21.3,11.5,55,37,21,30.22,30.05,17,6,29,0.00
2012-12-21,48.5,47.7,46.6,39.3,35.1,28.4,74,62,48,30.05,30.00,12,9,14,0.00
2012-12-23,54.2,52.4,48.9,53.4,51.6,48.1,97,97,97,30.02,29.94,17,5,22,1.84
2012-12-24,57.0,47.0,41.8,48.0,40.6,26.4,97,80,48,30.16,30.02,8,2,12,0.00
2012-12-25,50.9,46.9,43.3,45.9,38.3,26.7,96,73,47,30.13,29.84,27,6,37,0.21
2012-12-26,46.6,44.0,42.5,45.5,42.7,40.8,96,95,91,30.10,29.90,7,2,11,0.66
2012-12-27,47.8,43.2,39.6,41.7,39.0,34.4,95,85,68,30.16,30.07,6,2,9,0.06
2012-12-28,49.9,43.8,39.7,43.8,38.1,33.7,93,80,66,30.16,29.98,10,3,15,0.04
2012-12-29,46.6,40.8,36.1,44.4,39.1,34.3,96,94,88,30.07,29.94,9,1,9,0.65
2012-12-30,51.6,43.4,37.3,44.8,37.6,33.0,93,80,64,30.17,30.01,5,1,7,0.00
2012-12-31,54.7,43.7,38.7,36.0,30.1,19.3,79,60,35,30.26,30.17,7,1,9,0.00
2013-1-1,55.3,45.9,39.5,43.7,34.0,24.1,85,63,50,30.23,30.13,5,1,6,0.00